Campanya meteocatpedra

Dades EMA Espot (2.519 m)

?
?
Resum diari
Dades diàries de l'estació meteorològica
Temperatura mitjana 11.0 °C
Temperatura màxima 13.9 °C 16:32 TU
Temperatura mínima 6.8 °C 0:53 TU
Humitat relativa mitjana 80%
Precipitació acumulada 34.0 mm
Gruix de neu màxim 0 cm
Ratxa màxima del vent (10 m) 37.4 km/h - 42º 1:32 TU
Irradiació solar global 12.2 MJ/m2

El tram horari està expressat en Temps Universal (TU). Cal sumar una hora en horari d'hivern i dues en horari d'estiu per passar a l'hora oficial.

Espot (2.519 m)

Metadades estació meteorol´gica
Municipi Espot
Comarca Pallars Sobirà
Altitud 2519 m
Data alta 01.03.2002
Estat actual Operativa
Dades de període
Període
TU
TM
°C
TX
°C
TN
°C
HRM
%
PPT
mm
GN
cm
VVM (10 m)
km/h
DVM (10 m)
graus
VVX (10 m)
km/h
RS
W/m2
00:00 - 00:30 12.0 12.4 10.6 76 0.0 0 6.8 32 25.2 1
00:30 - 01:00 8.6 10.4 6.8 91 24.9 0 11.9 82 32.0 2
01:00 - 01:30 9.1 9.7 7.8 86 0.0 0 11.5 323 34.6 0
01:30 - 02:00 8.0 8.8 7.4 90 1.7 0 9.7 200 37.4 1
02:00 - 02:30 8.5 9.2 7.8 91 0.0 0 6.5 78 19.1 0
02:30 - 03:00 7.9 8.1 7.8 91 0.7 0 3.2 322 11.9 1
03:00 - 03:30 9.7 10.6 8.1 87 5.3 0 9.0 17 34.6 0
03:30 - 04:00 8.0 9.3 7.7 92 0.0 0 2.2 43 11.2 0
04:00 - 04:30 8.0 8.3 7.7 95 0.0 0 2.2 167 9.4 0
04:30 - 05:00 8.4 8.8 8.1 94 0.0 0 3.2 103 11.2 0
05:00 - 05:30 9.3 9.5 8.6 90 0.0 0 3.2 34 16.2 2
05:30 - 06:00 8.0 8.6 7.7 93 1.4 0 5.4 152 19.8 2
06:00 - 06:30 8.7 9.2 8.2 87 0.0 0 5.0 79 19.1 3
06:30 - 07:00 8.5 10.0 8.0 91 0.0 0 3.6 252 19.8 16
07:00 - 07:30 11.1 11.4 10.2 84 0.0 0 5.8 294 20.9 131
07:30 - 08:00 10.8 11.4 10.2 85 0.0 0 7.2 296 29.2 114
08:00 - 08:30 10.3 11.0 9.2 88 0.0 0 6.1 258 17.6 92
08:30 - 09:00 10.9 11.1 10.5 86 0.0 0 7.2 293 20.9 82
09:00 - 09:30 10.6 10.8 10.4 91 0.0 0 4.0 285 17.3 134
09:30 - 10:00 10.6 10.7 10.5 92 0.0 0 5.8 314 18.4 154
10:00 - 10:30 10.9 11.1 10.6 89 0.0 0 7.2 323 16.2 163
10:30 - 11:00 10.8 11.1 10.6 90 0.0 0 7.2 293 18.7 199
11:00 - 11:30 11.5 11.9 11.0 86 0.0 0 5.0 273 18.0 316
11:30 - 12:00 12.0 12.2 11.8 82 0.0 0 8.6 284 20.5 397
12:00 - 12:30 12.0 12.2 11.7 82 0.0 0 8.6 272 28.1 305
12:30 - 13:00 11.7 12.0 11.5 83 0.0 0 6.8 304 20.9 275
13:00 - 13:30 12.3 12.6 11.9 77 0.0 0 9.7 312 24.1 478
13:30 - 14:00 12.4 12.8 12.2 75 0.0 0 9.4 299 21.2 426
14:00 - 14:30 12.6 12.8 12.3 74 0.0 0 9.4 315 20.2 421
14:30 - 15:00 12.6 12.7 12.4 72 0.0 0 11.9 302 25.6 503
15:00 - 15:30 12.8 13.3 12.5 71 0.0 0 11.5 277 29.5 660
15:30 - 16:00 12.6 12.9 12.4 74 0.0 0 10.8 303 26.3 500
16:00 - 16:30 13.4 13.9 12.7 64 0.0 0 11.2 270 26.3 553
16:30 - 17:00 13.4 13.9 13.0 67 0.0 0 9.7 269 19.8 433
17:00 - 17:30 12.9 13.2 12.6 72 0.0 0 9.4 262 24.1 270
17:30 - 18:00 12.4 12.6 12.2 75 0.0 0 10.1 278 20.5 84
18:00 - 18:30 12.4 12.6 12.2 71 0.0 0 10.1 256 24.8 25
18:30 - 19:00 12.4 12.5 12.3 69 0.0 0 2.5 283 9.4 11
19:00 - 19:30 11.9 12.5 11.4 73 0.0 0 1.4 170 10.1 0
19:30 - 20:00 11.4 11.5 11.3 78 0.0 0 1.1 202 4.0 0
20:00 - 20:30 11.7 12.0 11.4 70 0.0 0 1.1 210 4.7 0
20:30 - 21:00 11.6 12.0 11.4 74 0.0 0 7.2 211 12.2 0
21:00 - 21:30 11.7 11.9 11.6 70 0.0 0 6.5 214 10.4 0
21:30 - 22:00 11.7 12.0 11.5 70 0.0 0 7.2 226 17.6 0
22:00 - 22:30 11.9 12.3 11.5 65 0.0 0 9.4 241 21.2 0
22:30 - 23:00 12.3 12.6 12.1 57 0.0 0 7.6 250 19.1 0
23:00 - 23:30 12.3 12.8 11.8 61 0.0 0 8.3 255 20.9 0
23:30 - 00:00 11.9 12.1 11.7 67 0.0 0 5.8 271 16.9 0

Les dades en taronja només han passat un control de qualitat automàtic. Resta pendent la seva validació definitiva.